Time;durP1;ratioP1;P1;durP2;ratioP2;P2;SDS_P1;SDS_P2;PMS_P1;PMS_P2;Temp;Humidity;BMP_temperature;BMP_pressure;BME280_temperature;BME280_humidity;BME280_pressure;Samples;Min_cycle;Max_cycle;Signal;HPM_P1;HPM_P2
2023/05/13 00:01:21;;;;;;;8.80;4.25;;;;;;;14.43;100.00;101893.50;5074162;28;20131;-55
2023/05/13 00:03:49;;;;;;;9.63;4.30;;;;;;;14.40;100.00;101901.66;5076398;28;20086;-56
2023/05/13 00:06:17;;;;;;;9.07;4.57;;;;;;;14.32;99.30;101904.78;5060214;28;20056;-53
2023/05/13 00:08:45;;;;;;;7.32;4.43;;;;;;;14.37;99.37;101904.50;5079033;28;20119;-54
2023/05/13 00:11:15;;;;;;;7.22;3.90;;;;;;;14.31;99.81;101907.53;5077992;28;20375;-55
2023/05/13 00:13:43;;;;;;;7.00;4.10;;;;;;;14.26;100.00;101901.69;5079920;28;20050;-55
2023/05/13 00:16:11;;;;;;;7.95;4.13;;;;;;;14.31;98.89;101900.44;5081411;28;20040;-55
2023/05/13 00:18:39;;;;;;;7.45;4.35;;;;;;;14.16;100.00;101899.63;5082516;28;20529;-54
2023/05/13 00:21:07;;;;;;;9.63;4.15;;;;;;;14.11;100.00;101898.22;5083619;28;20527;-54
2023/05/13 00:23:36;;;;;;;9.05;4.32;;;;;;;14.07;100.00;101899.34;5091013;28;20040;-55
2023/05/13 00:26:04;;;;;;;7.97;4.50;;;;;;;14.02;100.00;101899.66;5093031;28;20127;-54
2023/05/13 00:28:33;;;;;;;9.60;4.53;;;;;;;13.93;100.00;101898.41;5090486;28;20345;-65
2023/05/13 00:31:02;;;;;;;8.45;4.03;;;;;;;13.89;100.00;101893.44;5090709;28;20558;-61
2023/05/13 00:33:30;;;;;;;7.15;4.40;;;;;;;13.82;100.00;101893.81;5090890;28;20134;-63
2023/05/13 00:35:58;;;;;;;9.20;4.50;;;;;;;13.71;100.00;101884.84;5070901;28;20136;-55
2023/05/13 00:38:27;;;;;;;8.48;3.95;;;;;;;13.77;100.00;101895.03;5087776;28;20087;-53
2023/05/13 00:40:55;;;;;;;7.45;4.65;;;;;;;13.65;100.00;101886.94;5070682;28;20127;-54
2023/05/13 00:43:23;;;;;;;10.02;4.80;;;;;;;13.63;100.00;101888.84;5070855;28;20067;-53
2023/05/13 00:45:52;;;;;;;10.02;4.72;;;;;;;13.58;100.00;101890.91;5069853;28;20036;-53
2023/05/13 00:48:23;;;;;;;8.73;4.57;;;;;;;13.57;100.00;101889.19;5070785;28;20044;-54
2023/05/13 00:50:51;;;;;;;9.57;4.85;;;;;;;13.53;100.00;101893.81;5069107;28;20136;-55
2023/05/13 00:53:19;;;;;;;9.20;4.97;;;;;;;13.55;100.00;101891.06;5078844;28;20036;-54
2023/05/13 00:55:47;;;;;;;10.43;4.85;;;;;;;13.48;100.00;101889.75;5080151;28;20072;-54
2023/05/13 00:58:16;;;;;;;9.02;4.55;;;;;;;13.43;100.00;101897.97;5080714;28;20075;-55
2023/05/13 01:00:52;;;;;;;8.52;4.50;;;;;;;13.39;100.00;101903.50;5076414;28;20127;-52
2023/05/13 01:03:33;;;;;;;9.98;4.80;;;;;;;13.34;100.00;101894.03;5082893;28;20063;-52
2023/05/13 01:06:08;;;;;;;9.30;5.00;;;;;;;13.39;100.00;101900.88;5087025;28;20040;-52
2023/05/13 01:08:44;;;;;;;7.75;4.70;;;;;;;13.32;100.00;101898.59;5083435;28;20073;-53
2023/05/13 01:11:15;;;;;;;9.07;4.95;;;;;;;13.33;100.00;101905.56;5079062;28;20131;-55
2023/05/13 01:13:48;;;;;;;11.52;5.32;;;;;;;13.31;100.00;101901.31;5076054;28;20044;-53
2023/05/13 01:16:21;;;;;;;9.18;5.07;;;;;;;13.26;100.00;101901.56;5055233;28;20140;-53
2023/05/13 01:18:56;;;;;;;10.32;5.32;;;;;;;13.14;100.00;101897.03;5073655;28;20569;-51
2023/05/13 01:21:27;;;;;;;8.80;4.95;;;;;;;13.10;100.00;101899.03;5075340;28;20085;-54
2023/05/13 01:23:55;;;;;;;9.68;5.07;;;;;;;13.05;100.00;101901.06;5079351;28;20040;-54
2023/05/13 01:26:25;;;;;;;11.75;5.25;;;;;;;13.05;100.00;101894.94;5078568;28;20130;-53
2023/05/13 01:28:54;;;;;;;10.25;6.00;;;;;;;12.96;100.00;101893.69;5082311;28;20043;-55
2023/05/13 01:31:23;;;;;;;11.23;5.70;;;;;;;12.95;100.00;101891.97;5076475;28;20045;-54
2023/05/13 01:33:52;;;;;;;12.07;5.55;;;;;;;12.91;100.00;101893.09;5077296;28;20102;-51
2023/05/13 01:36:20;;;;;;;8.95;5.20;;;;;;;12.85;100.00;101889.03;5079461;28;20142;-51
2023/05/13 01:38:52;;;;;;;10.48;6.20;;;;;;;12.75;100.00;101899.28;5078784;28;20399;-52
2023/05/13 01:41:20;;;;;;;8.75;5.28;;;;;;;12.75;100.00;101891.34;5078672;28;20100;-53
2023/05/13 01:43:49;;;;;;;11.25;6.25;;;;;;;12.67;100.00;101893.59;5077354;28;20527;-55
2023/05/13 01:46:17;;;;;;;9.30;6.05;;;;;;;12.61;100.00;101888.66;5080623;28;20036;-52
2023/05/13 01:48:45;;;;;;;10.85;5.65;;;;;;;12.62;100.00;101883.28;5060177;28;20045;-53
2023/05/13 01:51:13;;;;;;;8.00;5.10;;;;;;;12.57;100.00;101884.50;5077079;28;20117;-53
2023/05/13 01:53:41;;;;;;;9.15;5.30;;;;;;;12.55;100.00;101891.66;5077430;28;20048;-54
2023/05/13 01:56:10;;;;;;;12.70;6.28;;;;;;;12.54;100.00;101893.44;5077240;28;20192;-55
2023/05/13 01:58:38;;;;;;;11.50;6.03;;;;;;;12.56;100.00;101888.09;5055149;28;20809;-52
2023/05/13 02:01:07;;;;;;;10.63;5.90;;;;;;;12.46;100.00;101885.97;5079183;28;20048;-52
2023/05/13 02:03:35;;;;;;;10.05;5.95;;;;;;;12.44;100.00;101892.25;5075482;28;20054;-54
2023/05/13 02:06:03;;;;;;;10.23;5.65;;;;;;;12.38;100.00;101887.31;5081967;28;20036;-54
2023/05/13 02:08:32;;;;;;;12.00;6.00;;;;;;;12.43;100.00;101886.13;5078515;28;20445;-53
2023/05/13 02:11:00;;;;;;;8.52;5.60;;;;;;;12.35;100.00;101888.34;5090480;28;20101;-51
2023/05/13 02:13:30;;;;;;;8.95;6.05;;;;;;;12.30;100.00;101896.53;5091517;28;20514;-53
2023/05/13 02:15:58;;;;;;;11.30;5.88;;;;;;;12.29;100.00;101893.97;5088617;28;20082;-63
2023/05/13 02:18:30;;;;;;;8.95;6.15;;;;;;;12.22;100.00;101897.91;5090239;28;20067;-61
2023/05/13 02:20:58;;;;;;;9.07;6.07;;;;;;;12.16;100.00;101899.06;5081368;28;20596;-53
2023/05/13 02:23:26;;;;;;;10.88;6.72;;;;;;;12.17;100.00;101898.13;5069160;28;20044;-53
2023/05/13 02:25:54;;;;;;;8.80;5.90;;;;;;;12.10;100.00;101897.63;5068793;28;20047;-53
2023/05/13 02:28:22;;;;;;;9.63;6.18;;;;;;;12.11;100.00;101895.84;5080818;28;20047;-55
2023/05/13 02:30:52;;;;;;;9.45;6.20;;;;;;;12.13;100.00;101897.47;5088328;28;20246;-53
2023/05/13 02:33:20;;;;;;;12.07;6.32;;;;;;;12.08;100.00;101896.00;5089293;28;20051;-50
2023/05/13 02:35:48;;;;;;;10.10;6.25;;;;;;;11.99;100.00;101892.94;5087335;28;20052;-53
2023/05/13 02:38:16;;;;;;;14.82;6.43;;;;;;;12.03;100.00;101890.16;5078636;28;20060;-53
2023/05/13 02:40:45;;;;;;;13.20;6.68;;;;;;;11.98;100.00;101893.88;5068427;28;20045;-52
2023/05/13 02:43:14;;;;;;;11.23;6.25;;;;;;;11.96;100.00;101893.09;5068849;28;20500;-53
2023/05/13 02:45:42;;;;;;;8.65;6.47;;;;;;;11.93;100.00;101893.25;5068207;28;20059;-52
2023/05/13 02:48:11;;;;;;;9.35;6.63;;;;;;;11.88;100.00;101889.16;5076044;28;20048;-54
2023/05/13 02:50:40;;;;;;;9.45;6.07;;;;;;;11.82;100.00;101887.69;5076227;28;20105;-54
2023/05/13 02:53:08;;;;;;;13.43;7.05;;;;;;;11.79;100.00;101879.94;5079907;28;20053;-53
2023/05/13 02:55:36;;;;;;;10.77;7.00;;;;;;;11.84;100.00;101883.19;5076672;28;20035;-54
2023/05/13 02:58:04;;;;;;;10.63;6.43;;;;;;;11.75;100.00;101889.81;5075627;28;20051;-54
2023/05/13 03:00:32;;;;;;;11.18;6.78;;;;;;;11.69;100.00;101887.50;5079341;28;20059;-54
2023/05/13 03:03:00;;;;;;;12.20;6.75;;;;;;;11.76;100.00;101888.88;5077208;28;20475;-54
2023/05/13 03:05:30;;;;;;;12.32;7.20;;;;;;;11.74;100.00;101889.88;5078292;28;20044;-53
2023/05/13 03:07:58;;;;;;;11.05;7.38;;;;;;;11.62;100.00;101889.59;5080690;28;20040;-51
2023/05/13 03:10:29;;;;;;;11.38;7.15;;;;;;;11.67;100.00;101890.22;5076656;28;20070;-54
2023/05/13 03:12:57;;;;;;;11.20;7.72;;;;;;;11.64;100.00;101889.53;5079788;28;20093;-54
2023/05/13 03:15:25;;;;;;;10.95;7.10;;;;;;;11.60;100.00;101888.84;5077277;28;20137;-54
2023/05/13 03:17:53;;;;;;;12.95;7.25;;;;;;;11.50;100.00;101891.09;5079308;28;20471;-54
2023/05/13 03:20:22;;;;;;;11.80;7.38;;;;;;;11.50;100.00;101884.97;5075149;28;20052;-61
2023/05/13 03:22:52;;;;;;;10.32;7.10;;;;;;;11.46;100.00;101883.44;5057492;28;20134;-54
2023/05/13 03:25:21;;;;;;;9.32;7.10;;;;;;;11.48;100.00;101886.88;5076842;28;20094;-53
2023/05/13 03:27:51;;;;;;;12.07;7.00;;;;;;;11.46;100.00;101886.06;5075433;28;20041;-52
2023/05/13 03:30:19;;;;;;;11.27;7.85;;;;;;;11.40;100.00;101889.03;5074520;28;20055;-50
2023/05/13 03:32:48;;;;;;;13.82;7.40;;;;;;;11.32;100.00;101881.53;5078932;28;20494;-53
2023/05/13 03:35:16;;;;;;;10.57;7.72;;;;;;;11.36;100.00;101887.47;5077174;28;20994;-53
2023/05/13 03:37:44;;;;;;;12.70;8.00;;;;;;;11.30;100.00;101897.41;5083713;28;20068;-54
2023/05/13 03:40:15;;;;;;;11.77;7.97;;;;;;;11.23;100.00;101893.38;5083377;28;21821;-62
2023/05/13 03:42:45;;;;;;;9.98;7.25;;;;;;;11.24;100.00;101892.44;5080794;28;20047;-60
2023/05/13 03:45:14;;;;;;;12.88;7.95;;;;;;;11.19;100.00;101891.81;5082168;28;20850;-55
2023/05/13 03:47:42;;;;;;;12.45;8.00;;;;;;;11.16;100.00;101892.00;5080621;28;20051;-63
2023/05/13 03:50:10;;;;;;;13.48;7.38;;;;;;;11.13;100.00;101893.00;5080744;28;20093;-61
2023/05/13 03:52:38;;;;;;;13.38;7.97;;;;;;;11.14;100.00;101899.97;5060987;28;20067;-53
2023/05/13 03:55:09;;;;;;;10.32;8.10;;;;;;;11.13;100.00;101893.00;5081337;28;20035;-52
2023/05/13 03:57:39;;;;;;;10.52;7.32;;;;;;;11.16;100.00;101897.25;5081837;28;20044;-55
2023/05/13 04:00:08;;;;;;;11.93;8.30;;;;;;;11.16;100.00;101897.25;5078855;28;20114;-54
2023/05/13 04:02:36;;;;;;;10.48;7.90;;;;;;;11.17;100.00;101893.72;5077862;28;20086;-53
2023/05/13 04:05:05;;;;;;;11.15;8.63;;;;;;;11.19;100.00;101899.72;5084581;28;20055;-53
2023/05/13 04:07:34;;;;;;;10.98;8.10;;;;;;;11.15;100.00;101896.41;5078996;28;20062;-54
2023/05/13 04:10:02;;;;;;;12.32;7.68;;;;;;;11.06;100.00;101907.41;5080498;28;20048;-63
2023/05/13 04:12:32;;;;;;;12.63;8.30;;;;;;;11.05;100.00;101899.59;5079217;28;20517;-62
2023/05/13 04:15:02;;;;;;;11.18;8.60;;;;;;;11.00;100.00;101899.81;5076774;28;20542;-55
2023/05/13 04:17:30;;;;;;;11.85;8.43;;;;;;;11.01;100.00;101903.31;5086686;28;20402;-63
2023/05/13 04:19:58;;;;;;;11.68;8.57;;;;;;;11.04;100.00;101908.41;5082601;28;20036;-54
2023/05/13 04:22:26;;;;;;;11.30;8.40;;;;;;;10.97;100.00;101908.69;5071652;28;20631;-53
2023/05/13 04:24:55;;;;;;;15.63;8.85;;;;;;;11.06;100.00;101906.56;5071180;28;20376;-53
2023/05/13 04:27:23;;;;;;;11.90;7.95;;;;;;;11.01;100.00;101901.53;5070240;28;20086;-53
2023/05/13 04:29:51;;;;;;;15.10;8.65;;;;;;;11.05;100.00;101905.69;5070399;28;20048;-53
2023/05/13 04:32:21;;;;;;;15.02;9.00;;;;;;;11.05;100.00;101910.13;5071476;28;20048;-53
2023/05/13 04:34:49;;;;;;;13.13;8.80;;;;;;;11.05;100.00;101910.13;5075680;28;20050;-54
2023/05/13 04:37:18;;;;;;;13.07;8.75;;;;;;;11.08;100.00;101908.16;5081218;28;20090;-53
2023/05/13 04:39:47;;;;;;;14.43;9.68;;;;;;;11.03;100.00;101911.97;5070545;28;20060;-63
2023/05/13 04:42:15;;;;;;;12.73;8.70;;;;;;;11.04;100.00;101913.69;5088256;28;20051;-62
2023/05/13 04:44:43;;;;;;;13.10;8.18;;;;;;;11.04;100.00;101911.03;5089591;28;20241;-62
2023/05/13 04:47:12;;;;;;;13.60;8.32;;;;;;;11.01;100.00;101906.78;5091421;28;20823;-62
2023/05/13 04:49:41;;;;;;;12.20;9.20;;;;;;;11.04;100.00;101917.16;5079968;28;20041;-63
2023/05/13 04:52:11;;;;;;;10.60;8.45;;;;;;;11.02;100.00;101915.56;5073365;28;20693;-63
2023/05/13 04:54:40;;;;;;;13.18;8.95;;;;;;;11.02;100.00;101915.56;5078608;28;20844;-62
2023/05/13 04:57:08;;;;;;;15.38;9.38;;;;;;;11.01;100.00;101919.09;5078671;28;20432;-62
2023/05/13 04:59:36;;;;;;;13.00;8.95;;;;;;;10.96;100.00;101922.81;5077735;28;20044;-63
2023/05/13 05:02:05;;;;;;;11.82;9.25;;;;;;;10.94;100.00;101924.66;5079512;28;20073;-63
2023/05/13 05:04:33;;;;;;;12.75;9.65;;;;;;;10.93;100.00;101922.94;5054620;28;20072;-63
2023/05/13 05:07:02;;;;;;;13.13;9.23;;;;;;;10.93;100.00;101928.22;5082876;28;20558;-62
2023/05/13 05:09:30;;;;;;;13.35;8.93;;;;;;;11.02;100.00;101934.81;5080848;28;20089;-52
2023/05/13 05:11:58;;;;;;;12.93;9.63;;;;;;;11.03;100.00;101926.00;5066037;28;20546;-52
2023/05/13 05:14:27;;;;;;;12.80;10.63;;;;;;;11.08;100.00;101925.75;5087235;28;20052;-54
2023/05/13 05:16:55;;;;;;;13.73;9.27;;;;;;;11.09;100.00;101936.22;5076587;28;20051;-54
2023/05/13 05:19:23;;;;;;;13.85;9.20;;;;;;;11.18;100.00;101942.81;5061323;28;20541;-54
2023/05/13 05:21:52;;;;;;;15.80;10.02;;;;;;;11.17;100.00;101941.09;5078754;28;20035;-54
2023/05/13 05:24:24;;;;;;;12.57;9.55;;;;;;;11.12;100.00;101940.47;5080398;28;20101;-50
2023/05/13 05:26:52;;;;;;;13.38;9.68;;;;;;;11.12;100.00;101943.94;5080889;28;20048;-53
2023/05/13 05:29:21;;;;;;;11.43;9.00;;;;;;;11.11;100.00;101934.38;5075466;28;20537;-54
2023/05/13 05:31:49;;;;;;;13.88;9.60;;;;;;;11.25;100.00;101943.34;5078726;28;20495;-52
2023/05/13 05:34:17;;;;;;;12.60;9.57;;;;;;;11.23;100.00;101946.03;5078938;28;20040;-54
2023/05/13 05:36:45;;;;;;;13.57;9.80;;;;;;;11.27;100.00;101949.38;5084423;28;20044;-55
2023/05/13 05:39:13;;;;;;;13.73;9.85;;;;;;;11.35;100.00;101954.28;5078540;28;20131;-55
2023/05/13 05:41:46;;;;;;;14.55;10.00;;;;;;;11.44;100.00;101946.75;5076490;28;20044;-56
2023/05/13 05:44:16;;;;;;;;;;;;;;;11.53;100.00;101952.47;5077652;28;20044;-55
2023/05/13 05:46:44;;;;;;;16.23;9.77;;;;;;;11.58;100.00;101955.72;5078227;28;19969;-54
2023/05/13 05:49:15;;;;;;;12.40;9.93;;;;;;;11.72;100.00;101953.22;5075946;28;20483;-54
2023/05/13 05:51:43;;;;;;;16.40;10.38;;;;;;;11.75;100.00;101954.84;5074704;28;20170;-54
2023/05/13 05:54:11;;;;;;;14.55;9.82;;;;;;;11.84;100.00;101952.56;5077508;28;20036;-55
2023/05/13 05:56:40;;;;;;;15.15;9.70;;;;;;;11.98;100.00;101962.44;5057072;28;20078;-55
2023/05/13 05:59:09;;;;;;;14.73;9.75;;;;;;;12.06;100.00;101954.09;5061453;28;20047;-53
2023/05/13 06:01:37;;;;;;;14.02;9.32;;;;;;;12.14;100.00;101956.31;5076588;28;20044;-52
2023/05/13 06:04:05;;;;;;;14.30;8.70;;;;;;;12.26;100.00;101954.81;5076820;28;20368;-52
2023/05/13 06:06:34;;;;;;;12.20;9.40;;;;;;;12.38;100.00;101955.91;5082407;28;20500;-53
2023/05/13 06:09:02;;;;;;;12.68;9.38;;;;;;;12.54;100.00;101955.91;5076944;28;20515;-55
2023/05/13 06:11:31;;;;;;;13.85;9.38;;;;;;;12.75;100.00;101970.53;5076693;28;20049;-53
2023/05/13 06:13:59;;;;;;;11.70;8.38;;;;;;;12.81;100.00;101964.91;5075284;28;20040;-53
2023/05/13 06:16:29;;;;;;;12.15;8.75;;;;;;;12.90;100.00;101955.63;5079997;28;20566;-52
2023/05/13 06:18:57;;;;;;;13.13;9.30;;;;;;;12.99;100.00;101963.03;5081610;28;20051;-53
2023/05/13 06:21:25;;;;;;;12.93;8.02;;;;;;;13.13;100.00;101961.34;5069547;28;20106;-53
2023/05/13 06:23:53;;;;;;;12.38;9.10;;;;;;;13.33;100.00;101966.34;5081804;28;20050;-63
2023/05/13 06:26:22;;;;;;;12.35;8.55;;;;;;;13.43;100.00;101964.03;5074350;28;20523;-55
2023/05/13 06:28:50;;;;;;;11.10;8.65;;;;;;;13.58;100.00;101967.53;5073175;28;20294;-63
2023/05/13 06:31:18;;;;;;;12.70;8.30;;;;;;;13.73;100.00;101973.69;5080999;28;20056;-53
2023/05/13 06:33:47;;;;;;;12.57;8.40;;;;;;;13.89;100.00;101970.13;5082593;28;20055;-54
2023/05/13 06:36:16;;;;;;;11.45;8.50;;;;;;;14.04;100.00;101974.44;5076986;28;20488;-56
2023/05/13 06:38:44;;;;;;;10.55;7.68;;;;;;;14.17;100.00;101971.91;5080968;28;20047;-55
2023/05/13 06:41:12;;;;;;;11.10;7.60;;;;;;;14.31;100.00;101969.22;5065805;28;20048;-54
2023/05/13 06:43:40;;;;;;;11.93;7.70;;;;;;;14.54;100.00;101964.28;5081031;28;20399;-53
2023/05/13 06:46:08;;;;;;;12.93;7.55;;;;;;;14.62;100.00;101969.94;5081537;28;20047;-55
2023/05/13 06:48:39;;;;;;;12.15;7.80;;;;;;;14.85;100.00;101963.16;5061888;28;20499;-54
2023/05/13 06:51:12;;;;;;;12.27;7.95;;;;;;;14.91;100.00;101961.91;5059636;28;20136;-54
2023/05/13 06:53:40;;;;;;;11.30;6.90;;;;;;;15.09;100.00;101969.59;5082570;28;20040;-50
2023/05/13 06:56:11;;;;;;;12.07;7.28;;;;;;;15.19;100.00;101971.53;5083945;28;20521;-55
2023/05/13 06:58:39;;;;;;;9.93;7.00;;;;;;;15.40;100.00;101970.19;5079295;28;20086;-53
2023/05/13 07:01:09;;;;;;;13.73;7.05;;;;;;;15.54;100.00;101976.25;5080666;28;20483;-54
2023/05/13 07:03:37;;;;;;;9.70;6.85;;;;;;;15.72;100.00;101978.59;5082701;28;20117;-53
2023/05/13 07:06:06;;;;;;;11.75;7.28;;;;;;;15.85;100.00;101973.31;5064373;28;20102;-54
2023/05/13 07:08:35;;;;;;;11.32;6.80;;;;;;;15.98;100.00;101974.16;5091666;28;20078;-53
2023/05/13 07:11:04;;;;;;;9.82;6.40;;;;;;;16.10;100.00;101976.88;5061442;28;20047;-54
2023/05/13 07:13:33;;;;;;;9.57;6.28;;;;;;;16.26;100.00;101964.22;5077911;28;20067;-53
2023/05/13 07:16:02;;;;;;;11.40;7.30;;;;;;;16.41;100.00;101972.06;5083573;28;20043;-54
2023/05/13 07:18:30;;;;;;;12.82;6.97;;;;;;;16.52;100.00;101974.78;5087347;28;20040;-52
2023/05/13 07:20:58;;;;;;;10.93;6.07;;;;;;;16.70;100.00;101970.78;5072736;28;20052;-54
2023/05/13 07:23:28;;;;;;;9.95;6.20;;;;;;;16.89;100.00;101975.63;5085407;28;20119;-54
2023/05/13 07:25:58;;;;;;;10.73;6.38;;;;;;;17.05;100.00;101974.47;5083210;28;20044;-56
2023/05/13 07:28:29;;;;;;;11.02;6.22;;;;;;;17.15;100.00;101971.94;5090249;28;20518;-55
2023/05/13 07:30:58;;;;;;;10.27;6.13;;;;;;;17.33;100.00;101975.03;5092277;28;21755;-53
2023/05/13 07:33:26;;;;;;;11.70;6.10;;;;;;;17.53;100.00;101966.41;5082828;28;20479;-54
2023/05/13 07:35:54;;;;;;;9.68;5.80;;;;;;;17.69;100.00;101975.84;5080248;28;20068;-53
2023/05/13 07:38:22;;;;;;;9.95;5.97;;;;;;;17.93;99.63;101980.22;5080149;28;20051;-54
2023/05/13 07:40:51;;;;;;;10.63;6.00;;;;;;;18.13;98.13;101981.31;5064059;28;20122;-54
2023/05/13 07:43:22;;;;;;;10.15;6.22;;;;;;;18.27;92.83;101983.75;5080912;28;20036;-54
2023/05/13 07:45:51;;;;;;;10.33;6.33;;;;;;;18.30;91.19;101983.50;5085034;28;20101;-52
2023/05/13 07:48:19;;;;;;;9.57;5.85;;;;;;;18.48;95.32;101978.50;5087515;28;20040;-54
2023/05/13 07:50:47;;;;;;;13.50;6.03;;;;;;;18.62;91.61;101977.34;5086948;28;20056;-56
2023/05/13 07:53:16;;;;;;;9.88;5.85;;;;;;;18.72;88.18;101978.31;5092933;28;20170;-56
2023/05/13 07:55:46;;;;;;;9.60;5.57;;;;;;;18.76;87.93;101973.59;5089403;28;20061;-56
2023/05/13 07:58:14;;;;;;;9.60;5.32;;;;;;;18.92;86.66;101986.50;5083464;28;20050;-56
2023/05/13 08:00:48;;;;;;;8.45;5.60;;;;;;;19.05;87.99;101973.03;5083996;28;20459;-56
2023/05/13 08:03:16;;;;;;;10.20;5.55;;;;;;;19.22;87.32;101969.78;5088272;28;20055;-56
2023/05/13 08:05:47;;;;;;;10.20;6.22;;;;;;;19.29;85.00;101971.91;5082510;28;20052;-55
2023/05/13 08:08:15;;;;;;;9.07;4.95;;;;;;;19.51;88.13;101970.94;5082472;28;20078;-56
2023/05/13 08:10:43;;;;;;;10.40;4.88;;;;;;;19.65;85.33;101969.75;5081867;28;20048;-56
2023/05/13 08:13:11;;;;;;;9.40;5.65;;;;;;;19.78;78.84;101962.34;5082955;28;20043;-55
2023/05/13 08:15:39;;;;;;;7.25;4.45;;;;;;;19.90;81.43;101968.50;5079596;28;20379;-56
2023/05/13 08:18:11;;;;;;;7.95;5.10;;;;;;;20.05;78.34;101972.47;5084825;28;20134;-56
2023/05/13 08:20:39;;;;;;;7.38;4.97;;;;;;;20.19;78.15;101962.41;5076433;28;20046;-56
2023/05/13 08:23:07;;;;;;;8.60;4.95;;;;;;;20.41;78.71;101966.66;5081091;28;20468;-56
2023/05/13 08:25:35;;;;;;;8.10;4.70;;;;;;;20.58;77.63;101971.34;5077280;28;20437;-56
2023/05/13 08:28:04;;;;;;;8.25;4.72;;;;;;;20.83;76.33;101969.16;5059925;28;20106;-56
2023/05/13 08:30:35;;;;;;;7.72;4.22;;;;;;;20.93;77.99;101970.00;5081121;28;20044;-56
2023/05/13 08:33:03;;;;;;;8.45;5.15;;;;;;;21.02;74.83;101973.66;5081428;28;20045;-56
2023/05/13 08:35:33;;;;;;;12.38;5.38;;;;;;;21.15;73.49;101972.53;5080457;28;20404;-55
2023/05/13 08:38:02;;;;;;;11.57;5.15;;;;;;;21.28;73.89;101965.03;5083320;28;20044;-56
2023/05/13 08:40:30;;;;;;;7.78;4.47;;;;;;;21.56;75.47;101963.31;5084564;28;20426;-57
2023/05/13 08:43:01;;;;;;;10.85;4.55;;;;;;;21.74;73.99;101967.91;5085156;28;20554;-56
2023/05/13 08:45:30;;;;;;;10.18;5.00;;;;;;;21.79;69.16;101971.00;5083475;28;20070;-57
2023/05/13 08:48:00;;;;;;;10.30;5.53;;;;;;;21.91;69.99;101967.16;5063284;28;20052;-56
2023/05/13 08:50:33;;;;;;;10.02;5.45;;;;;;;22.04;69.41;101969.47;5080925;28;20487;-57
2023/05/13 08:53:01;;;;;;;8.02;4.70;;;;;;;22.03;68.54;101965.13;5078661;28;20550;-56
2023/05/13 08:55:30;;;;;;;9.13;5.00;;;;;;;22.08;68.32;101968.19;5075390;28;20116;-56
2023/05/13 08:57:58;;;;;;;10.05;5.15;;;;;;;22.32;69.96;101964.13;5079699;28;20036;-57
2023/05/13 09:00:26;;;;;;;9.52;5.15;;;;;;;22.58;66.39;101955.38;5080259;28;20051;-57
2023/05/13 09:02:54;;;;;;;8.25;4.90;;;;;;;22.68;67.62;101966.03;5080298;28;20061;-56
2023/05/13 09:05:23;;;;;;;8.57;4.72;;;;;;;22.81;65.75;101961.13;5078319;28;20376;-57
2023/05/13 09:07:54;;;;;;;7.55;4.63;;;;;;;22.96;67.09;101966.78;5080178;28;20572;-56
2023/05/13 09:10:22;;;;;;;8.25;4.88;;;;;;;23.03;66.29;101958.94;5073934;28;20075;-57
2023/05/13 09:12:52;;;;;;;8.50;4.70;;;;;;;23.13;67.03;101965.09;5076052;28;20525;-56
2023/05/13 09:15:21;;;;;;;9.32;4.28;;;;;;;23.42;64.52;101963.97;5079695;28;20503;-55
2023/05/13 09:17:54;;;;;;;8.25;4.70;;;;;;;23.55;63.34;101960.88;5080952;28;20502;-57
2023/05/13 09:20:24;;;;;;;8.85;4.75;;;;;;;23.73;64.23;101967.00;5082604;28;20123;-56
2023/05/13 09:22:57;;;;;;;9.20;3.95;;;;;;;23.99;64.61;101955.41;5075809;28;20048;-56
2023/05/13 09:25:26;;;;;;;7.95;5.00;;;;;;;24.12;60.74;101958.47;5077027;28;20498;-56
2023/05/13 09:27:57;;;;;;;7.93;4.13;;;;;;;24.24;61.09;101958.16;5076711;28;20052;-57
2023/05/13 09:30:26;;;;;;;6.45;3.78;;;;;;;24.45;61.07;101961.25;5078787;28;20459;-57
2023/05/13 09:33:06;;;;;;;9.55;3.88;;;;;;;24.67;60.14;101956.28;5079148;28;20049;-57
2023/05/13 09:35:36;;;;;;;7.75;4.00;;;;;;;24.54;58.16;101950.50;5079431;28;20047;-57
2023/05/13 09:38:14;;;;;;;9.07;4.43;;;;;;;24.76;59.76;101959.78;5078878;28;20085;-56
2023/05/13 09:40:50;;;;;;;7.93;4.35;;;;;;;24.68;55.04;101957.97;5077103;28;20052;-57
2023/05/13 09:43:19;;;;;;;7.68;3.90;;;;;;;24.89;56.90;101949.38;5078410;28;20118;-57
2023/05/13 09:45:47;;;;;;;7.75;4.38;;;;;;;25.21;56.61;101949.53;5074522;28;20047;-57
2023/05/13 09:48:15;;;;;;;8.00;4.55;;;;;;;25.42;56.06;101949.03;5084916;28;20048;-64
2023/05/13 09:50:48;;;;;;;7.30;3.70;;;;;;;25.27;57.91;101944.31;5090488;28;20089;-63
2023/05/13 09:53:19;;;;;;;6.80;4.05;;;;;;;25.45;55.14;101941.44;5086240;28;20751;-64
2023/05/13 09:55:52;;;;;;;6.95;3.40;;;;;;;25.64;55.05;101936.69;5078985;28;20514;-64
2023/05/13 09:58:21;;;;;;;12.60;5.72;;;;;;;25.83;53.29;101937.31;5078436;28;20123;-62
2023/05/13 10:00:50;;;;;;;8.88;3.78;;;;;;;25.98;51.56;101941.75;5073581;28;20411;-62
2023/05/13 10:03:19;;;;;;;6.88;3.08;;;;;;;26.27;52.51;101943.00;5081564;28;20475;-64
2023/05/13 10:05:48;;;;;;;6.30;3.40;;;;;;;26.37;52.04;101937.38;5073671;28;20113;-62
2023/05/13 10:08:18;;;;;;;9.77;3.63;;;;;;;26.32;48.29;101939.75;5075763;28;20086;-63
2023/05/13 10:10:50;;;;;;;7.65;3.58;;;;;;;26.28;46.70;101933.03;5076564;28;20786;-64
2023/05/13 10:13:23;;;;;;;6.60;3.40;;;;;;;26.30;47.24;101931.00;5078043;28;20043;-64
2023/05/13 10:15:53;;;;;;;9.02;3.83;;;;;;;26.30;45.89;101931.00;5077019;28;20483;-63
2023/05/13 10:18:23;;;;;;;9.27;3.30;;;;;;;26.44;44.33;101932.09;5074624;28;20056;-64
2023/05/13 10:20:52;;;;;;;7.55;3.53;;;;;;;26.47;48.41;101937.97;5065491;28;20515;-64
2023/05/13 10:23:23;;;;;;;10.10;3.80;;;;;;;26.32;45.81;101932.50;5089604;28;20059;-63
2023/05/13 10:25:54;;;;;;;7.72;3.70;;;;;;;26.28;47.26;101933.03;5090606;28;20361;-65
2023/05/13 10:28:22;;;;;;;7.13;3.63;;;;;;;26.36;45.51;101929.47;5087437;28;20742;-64
2023/05/13 10:30:53;;;;;;;7.05;3.22;;;;;;;26.44;44.45;101924.84;5080315;28;20082;-63
2023/05/13 10:33:21;;;;;;;8.05;3.28;;;;;;;26.24;45.20;101929.84;5075164;28;20143;-64
2023/05/13 10:36:01;;;;;;;9.73;4.00;;;;;;;26.13;44.79;101924.88;5076190;28;20089;-64
2023/05/13 10:38:47;;;;;;;7.18;3.88;;;;;;;26.28;44.99;101922.25;5080770;28;20519;-63
2023/05/13 10:41:34;;;;;;;7.30;3.50;;;;;;;26.28;44.44;101919.56;5077297;28;20060;-57
2023/05/13 10:44:03;;;;;;;7.63;3.58;;;;;;;26.43;44.36;101923.16;5080921;28;20468;-64
2023/05/13 10:46:34;;;;;;;9.32;4.00;;;;;;;26.44;47.02;101922.16;5074972;28;20044;-63
2023/05/13 10:49:02;;;;;;;9.02;3.88;;;;;;;26.48;46.13;101928.88;5078924;28;20106;-58
2023/05/13 10:51:31;;;;;;;7.05;3.67;;;;;;;26.61;45.85;101917.50;5079308;28;20033;-58
2023/05/13 10:54:17;;;;;;;7.38;3.65;;;;;;;26.76;46.05;101920.25;5077258;28;20036;-58
2023/05/13 10:56:46;;;;;;;7.35;3.72;;;;;;;27.18;46.83;101912.59;5078688;28;20458;-64
2023/05/13 10:59:16;;;;;;;9.38;3.95;;;;;;;26.91;42.61;101916.75;5060704;28;20048;-63
2023/05/13 11:01:45;;;;;;;7.68;3.78;;;;;;;26.96;44.00;101911.66;5075138;28;20495;-63
2023/05/13 11:04:15;;;;;;;7.70;4.00;;;;;;;26.87;43.08;101916.25;5078016;28;20040;-64
2023/05/13 11:06:46;;;;;;;9.55;3.88;;;;;;;27.14;42.89;101905.91;5075564;28;20040;-65
2023/05/13 11:09:29;;;;;;;7.90;3.50;;;;;;;27.36;42.61;101906.88;5077820;28;20828;-62
2023/05/13 11:12:00;;;;;;;7.55;4.20;;;;;;;27.49;42.84;101914.34;5078238;28;20510;-63
2023/05/13 11:14:31;;;;;;;8.00;3.90;;;;;;;27.30;42.48;101904.91;5076546;28;20075;-63
2023/05/13 11:17:09;;;;;;;9.10;3.85;;;;;;;27.59;42.22;101904.06;5073096;28;20491;-63
2023/05/13 11:19:45;;;;;;;9.50;3.78;;;;;;;27.58;40.35;101905.13;5076098;28;20577;-65
2023/05/13 11:22:15;;;;;;;6.13;3.38;;;;;;;27.41;39.45;101901.75;5076162;28;20345;-63
2023/05/13 11:24:47;;;;;;;8.60;3.42;;;;;;;27.75;39.79;101897.63;5055424;28;20056;-63
2023/05/13 11:27:17;;;;;;;10.48;3.25;;;;;;;27.76;39.03;101896.59;5077167;28;20036;-64